Portada
Imágenes satélite Pronóstico 15 díasClimaPredicción Marítima Ciclones Rayo AeropuertosFAQ Noticias Acerca
El tiempo : Europa África América del Norte América del Sur Asia Australia-Oceanía Otros
Idiomas Contacto

Chichén Itzá, México

latitud: 20-38-30N, longitud: 088-26-58W, altitud: 31 m


METAR: MMCT 212043Z 10009KT 7SM OVC040 26/25 A2974 RMK 8/6// DZ MSGTX MMMD
TAF: falta

Hora: 20:35 (01:35 UTC)

Observación

El informe se hizo hace 4 horas y 52 minutos, a las 20:43 UTC
Viento 9 kt del este
Temperatura 26°C
Humedad 94%
Presión 1007 hPa
Visibilidad: 11.3 km
Cielo cubierto a una altura de 4000 ft

Cambiar las unidades
La información que se ofrece en estas páginas está sujeta a una cláusula de exención de responsabilidad
El tiempo : Europa África América del Norte América del Sur Asia Australia-Oceanía Otros
Imágenes satélite Pronóstico 15 díasClimaPredicción Marítima Ciclones Rayo AeropuertosFAQ Idiomas Contacto Noticias Acerca